sensor_id;sensor_type;location;lat;lon;timestamp;temperature;humidity
22787;DHT22;63134;52.020;4.714;2024-03-23T00:54:02;9.30;98.80
22787;DHT22;63134;52.020;4.714;2024-03-23T00:56:48;9.20;98.80
22787;DHT22;63134;52.020;4.714;2024-03-23T00:59:32;9.20;98.60
22787;DHT22;63134;52.020;4.714;2024-03-23T01:02:17;9.10;98.40
22787;DHT22;63134;52.020;4.714;2024-03-23T01:05:01;9.00;98.60
22787;DHT22;63134;52.020;4.714;2024-03-23T01:07:46;8.90;98.60
22787;DHT22;63134;52.020;4.714;2024-03-23T01:10:30;8.80;98.60
22787;DHT22;63134;52.020;4.714;2024-03-23T01:13:15;8.70;98.60
22787;DHT22;63134;52.020;4.714;2024-03-23T01:16:00;8.60;98.80
22787;DHT22;63134;52.020;4.714;2024-03-23T01:18:44;8.60;99.10
22787;DHT22;63134;52.020;4.714;2024-03-23T01:21:29;8.50;98.90
22787;DHT22;63134;52.020;4.714;2024-03-23T01:24:14;8.50;99.10
22787;DHT22;63134;52.020;4.714;2024-03-23T01:26:58;8.40;98.90
22787;DHT22;63134;52.020;4.714;2024-03-23T01:29:43;8.40;98.80
22787;DHT22;63134;52.020;4.714;2024-03-23T01:32:27;8.30;99.10
22787;DHT22;63134;52.020;4.714;2024-03-23T01:35:12;8.20;99.20
22787;DHT22;63134;52.020;4.714;2024-03-23T01:37:57;8.20;99.10
22787;DHT22;63134;52.020;4.714;2024-03-23T01:40:41;8.10;99.00
22787;DHT22;63134;52.020;4.714;2024-03-23T01:43:25;8.10;98.90
22787;DHT22;63134;52.020;4.714;2024-03-23T01:46:10;8.00;99.30
22787;DHT22;63134;52.020;4.714;2024-03-23T01:48:55;8.00;99.10
22787;DHT22;63134;52.020;4.714;2024-03-23T01:51:42;7.90;98.90
22787;DHT22;63134;52.020;4.714;2024-03-23T01:54:29;7.80;98.90
22787;DHT22;63134;52.020;4.714;2024-03-23T01:57:14;7.80;99.40
22787;DHT22;63134;52.020;4.714;2024-03-23T01:59:58;7.80;99.40
22787;DHT22;63134;52.020;4.714;2024-03-23T02:02:46;7.70;99.30
22787;DHT22;63134;52.020;4.714;2024-03-23T02:05:30;7.70;99.50
22787;DHT22;63134;52.020;4.714;2024-03-23T02:08:17;7.70;99.40
22787;DHT22;63134;52.020;4.714;2024-03-23T02:11:02;7.70;99.30
22787;DHT22;63134;52.020;4.714;2024-03-23T02:13:46;7.70;99.70
22787;DHT22;63134;52.020;4.714;2024-03-23T02:16:31;7.70;99.60
22787;DHT22;63134;52.020;4.714;2024-03-23T02:19:15;7.70;99.40
22787;DHT22;63134;52.020;4.714;2024-03-23T02:22:00;7.70;99.30
22787;DHT22;63134;52.020;4.714;2024-03-23T02:24:45;7.70;99.10
22787;DHT22;63134;52.020;4.714;2024-03-23T02:27:29;7.80;99.10
22787;DHT22;63134;52.020;4.714;2024-03-23T02:30:14;7.70;98.50
22787;DHT22;63134;52.020;4.714;2024-03-23T02:33:01;7.70;98.80
22787;DHT22;63134;52.020;4.714;2024-03-23T02:35:47;7.70;98.70
22787;DHT22;63134;52.020;4.714;2024-03-23T02:38:32;7.70;98.40
22787;DHT22;63134;52.020;4.714;2024-03-23T02:41:16;7.70;98.30
22787;DHT22;63134;52.020;4.714;2024-03-23T02:44:06;7.70;98.00
22787;DHT22;63134;52.020;4.714;2024-03-23T02:46:51;7.70;97.70
22787;DHT22;63134;52.020;4.714;2024-03-23T02:49:39;7.60;97.50
22787;DHT22;63134;52.020;4.714;2024-03-23T02:52:24;7.50;97.50
22787;DHT22;63134;52.020;4.714;2024-03-23T02:55:12;7.50;97.70
22787;DHT22;63134;52.020;4.714;2024-03-23T02:57:56;7.50;97.80
22787;DHT22;63134;52.020;4.714;2024-03-23T03:00:46;7.40;97.70
22787;DHT22;63134;52.020;4.714;2024-03-23T03:03:30;7.40;97.70
22787;DHT22;63134;52.020;4.714;2024-03-23T03:06:23;7.30;97.70
22787;DHT22;63134;52.020;4.714;2024-03-23T03:09:08;7.30;97.60
22787;DHT22;63134;52.020;4.714;2024-03-23T03:11:52;7.20;97.80
22787;DHT22;63134;52.020;4.714;2024-03-23T03:14:37;7.20;97.80
22787;DHT22;63134;52.020;4.714;2024-03-23T03:17:22;7.20;97.60
22787;DHT22;63134;52.020;4.714;2024-03-23T03:20:08;7.10;97.80
22787;DHT22;63134;52.020;4.714;2024-03-23T03:22:57;7.10;97.80
22787;DHT22;63134;52.020;4.714;2024-03-23T03:25:42;7.10;97.90
22787;DHT22;63134;52.020;4.714;2024-03-23T03:28:26;7.10;98.00
22787;DHT22;63134;52.020;4.714;2024-03-23T03:31:15;7.00;98.40
22787;DHT22;63134;52.020;4.714;2024-03-23T03:34:00;7.00;98.10
22787;DHT22;63134;52.020;4.714;2024-03-23T03:36:45;7.00;97.80
22787;DHT22;63134;52.020;4.714;2024-03-23T03:39:30;7.00;97.90
22787;DHT22;63134;52.020;4.714;2024-03-23T03:42:14;6.90;98.00
22787;DHT22;63134;52.020;4.714;2024-03-23T03:44:59;6.90;98.00
22787;DHT22;63134;52.020;4.714;2024-03-23T03:47:44;6.90;98.10
22787;DHT22;63134;52.020;4.714;2024-03-23T03:50:28;6.90;98.30
22787;DHT22;63134;52.020;4.714;2024-03-23T03:53:13;6.90;98.10
22787;DHT22;63134;52.020;4.714;2024-03-23T03:56:01;6.90;98.20
22787;DHT22;63134;52.020;4.714;2024-03-23T03:58:46;6.80;98.10
22787;DHT22;63134;52.020;4.714;2024-03-23T04:01:31;6.80;98.20
22787;DHT22;63134;52.020;4.714;2024-03-23T04:04:15;6.80;98.10
22787;DHT22;63134;52.020;4.714;2024-03-23T04:07:02;6.80;98.20
22787;DHT22;63134;52.020;4.714;2024-03-23T04:09:46;6.80;98.30
22787;DHT22;63134;52.020;4.714;2024-03-23T04:12:31;6.70;98.20
22787;DHT22;63134;52.020;4.714;2024-03-23T04:15:16;6.70;98.30
22787;DHT22;63134;52.020;4.714;2024-03-23T04:18:01;6.70;98.40
22787;DHT22;63134;52.020;4.714;2024-03-23T04:20:45;6.70;98.40
22787;DHT22;63134;52.020;4.714;2024-03-23T04:23:30;6.70;98.10
22787;DHT22;63134;52.020;4.714;2024-03-23T04:26:15;6.70;98.10
22787;DHT22;63134;52.020;4.714;2024-03-23T04:29:00;6.70;98.20
22787;DHT22;63134;52.020;4.714;2024-03-23T04:31:45;6.70;98.40
22787;DHT22;63134;52.020;4.714;2024-03-23T04:34:30;6.70;98.20
22787;DHT22;63134;52.020;4.714;2024-03-23T04:37:15;6.60;98.20
22787;DHT22;63134;52.020;4.714;2024-03-23T04:40:01;6.60;98.10
22787;DHT22;63134;52.020;4.714;2024-03-23T04:42:47;6.60;98.10
22787;DHT22;63134;52.020;4.714;2024-03-23T04:45:31;6.50;98.20
22787;DHT22;63134;52.020;4.714;2024-03-23T04:48:16;6.60;98.30
22787;DHT22;63134;52.020;4.714;2024-03-23T04:51:01;6.60;98.20
22787;DHT22;63134;52.020;4.714;2024-03-23T04:53:47;6.50;98.00
22787;DHT22;63134;52.020;4.714;2024-03-23T04:56:32;6.40;98.20
22787;DHT22;63134;52.020;4.714;2024-03-23T04:59:17;6.40;98.10
22787;DHT22;63134;52.020;4.714;2024-03-23T05:02:02;6.40;98.10
22787;DHT22;63134;52.020;4.714;2024-03-23T05:04:47;6.40;98.60
22787;DHT22;63134;52.020;4.714;2024-03-23T05:07:32;6.40;98.80
22787;DHT22;63134;52.020;4.714;2024-03-23T05:10:16;6.60;99.60
22787;DHT22;63134;52.020;4.714;2024-03-23T05:13:01;6.70;99.60
22787;DHT22;63134;52.020;4.714;2024-03-23T05:15:54;6.90;99.30
22787;DHT22;63134;52.020;4.714;2024-03-23T05:18:42;7.00;99.10
22787;DHT22;63134;52.020;4.714;2024-03-23T05:21:30;7.10;99.50
22787;DHT22;63134;52.020;4.714;2024-03-23T05:24:14;7.20;98.90
22787;DHT22;63134;52.020;4.714;2024-03-23T05:26:59;7.30;98.80
22787;DHT22;63134;52.020;4.714;2024-03-23T05:29:43;7.30;98.70
22787;DHT22;63134;52.020;4.714;2024-03-23T05:32:28;7.30;97.90
22787;DHT22;63134;52.020;4.714;2024-03-23T05:35:13;7.20;97.50
22787;DHT22;63134;52.020;4.714;2024-03-23T05:37:58;7.20;97.60
22787;DHT22;63134;52.020;4.714;2024-03-23T05:40:59;7.10;97.70
22787;DHT22;63134;52.020;4.714;2024-03-23T05:43:44;7.10;98.20
22787;DHT22;63134;52.020;4.714;2024-03-23T05:46:28;7.20;98.60
22787;DHT22;63134;52.020;4.714;2024-03-23T05:49:13;7.30;99.10
22787;DHT22;63134;52.020;4.714;2024-03-23T05:51:57;7.50;98.60
22787;DHT22;63134;52.020;4.714;2024-03-23T05:54:42;7.40;97.80
22787;DHT22;63134;52.020;4.714;2024-03-23T05:57:27;7.40;97.40
22787;DHT22;63134;52.020;4.714;2024-03-23T06:00:12;7.30;97.70
22787;DHT22;63134;52.020;4.714;2024-03-23T06:03:02;7.30;97.80
22787;DHT22;63134;52.020;4.714;2024-03-23T06:05:46;7.40;98.10
22787;DHT22;63134;52.020;4.714;2024-03-23T06:08:31;7.60;98.20
22787;DHT22;63134;52.020;4.714;2024-03-23T06:11:16;7.70;97.90
22787;DHT22;63134;52.020;4.714;2024-03-23T06:14:00;7.80;97.20
22787;DHT22;63134;52.020;4.714;2024-03-23T06:16:45;7.90;96.70
22787;DHT22;63134;52.020;4.714;2024-03-23T06:19:29;7.90;96.40
22787;DHT22;63134;52.020;4.714;2024-03-23T06:22:15;8.00;96.60
22787;DHT22;63134;52.020;4.714;2024-03-23T06:25:00;8.10;96.50
22787;DHT22;63134;52.020;4.714;2024-03-23T06:27:44;8.30;96.40
22787;DHT22;63134;52.020;4.714;2024-03-23T06:30:29;8.40;96.00
22787;DHT22;63134;52.020;4.714;2024-03-23T06:33:14;8.30;95.30
22787;DHT22;63134;52.020;4.714;2024-03-23T06:35:59;8.30;95.40
22787;DHT22;63134;52.020;4.714;2024-03-23T06:38:45;8.20;95.50
22787;DHT22;63134;52.020;4.714;2024-03-23T06:41:30;8.30;95.40
22787;DHT22;63134;52.020;4.714;2024-03-23T06:44:15;8.40;95.40
22787;DHT22;63134;52.020;4.714;2024-03-23T06:46:59;8.70;95.30
22787;DHT22;63134;52.020;4.714;2024-03-23T06:49:44;8.70;94.70
22787;DHT22;63134;52.020;4.714;2024-03-23T06:52:29;8.70;94.30
22787;DHT22;63134;52.020;4.714;2024-03-23T06:55:14;8.70;93.90
22787;DHT22;63134;52.020;4.714;2024-03-23T06:57:59;8.60;93.80
22787;DHT22;63134;52.020;4.714;2024-03-23T07:00:44;8.60;93.90
22787;DHT22;63134;52.020;4.714;2024-03-23T07:03:29;8.70;93.70
22787;DHT22;63134;52.020;4.714;2024-03-23T07:06:13;8.90;93.90
22787;DHT22;63134;52.020;4.714;2024-03-23T07:08:58;9.30;93.40
22787;DHT22;63134;52.020;4.714;2024-03-23T07:11:42;9.50;92.30
22787;DHT22;63134;52.020;4.714;2024-03-23T07:14:27;9.30;91.60
22787;DHT22;63134;52.020;4.714;2024-03-23T07:17:12;9.30;91.90
22787;DHT22;63134;52.020;4.714;2024-03-23T07:19:56;9.50;91.60
22787;DHT22;63134;52.020;4.714;2024-03-23T07:22:41;9.70;91.20
22787;DHT22;63134;52.020;4.714;2024-03-23T07:25:26;9.60;90.40
22787;DHT22;63134;52.020;4.714;2024-03-23T07:28:12;9.50;90.20
22787;DHT22;63134;52.020;4.714;2024-03-23T07:31:09;9.40;90.30
22787;DHT22;63134;52.020;4.714;2024-03-23T07:33:54;9.50;90.20
22787;DHT22;63134;52.020;4.714;2024-03-23T07:36:39;9.70;90.20
22787;DHT22;63134;52.020;4.714;2024-03-23T07:39:26;10.20;90.00
22787;DHT22;63134;52.020;4.714;2024-03-23T07:42:12;10.10;85.00
22787;DHT22;63134;52.020;4.714;2024-03-23T07:44:57;9.70;85.20
22787;DHT22;63134;52.020;4.714;2024-03-23T07:47:41;9.20;87.40
22787;DHT22;63134;52.020;4.714;2024-03-23T07:50:26;8.90;89.40
22787;DHT22;63134;52.020;4.714;2024-03-23T07:53:10;8.70;90.20
22787;DHT22;63134;52.020;4.714;2024-03-23T07:56:05;8.60;90.70
22787;DHT22;63134;52.020;4.714;2024-03-23T07:58:50;8.60;91.20
22787;DHT22;63134;52.020;4.714;2024-03-23T08:01:34;8.60;91.00
22787;DHT22;63134;52.020;4.714;2024-03-23T08:04:19;8.70;90.90
22787;DHT22;63134;52.020;4.714;2024-03-23T08:07:03;8.60;90.80
22787;DHT22;63134;52.020;4.714;2024-03-23T08:09:48;8.60;91.00
22787;DHT22;63134;52.020;4.714;2024-03-23T08:12:33;8.70;90.80
22787;DHT22;63134;52.020;4.714;2024-03-23T08:15:18;8.80;90.80
22787;DHT22;63134;52.020;4.714;2024-03-23T08:18:03;8.90;90.40
22787;DHT22;63134;52.020;4.714;2024-03-23T08:20:59;9.10;90.10
22787;DHT22;63134;52.020;4.714;2024-03-23T08:23:44;9.40;90.00
22787;DHT22;63134;52.020;4.714;2024-03-23T08:26:29;9.60;89.60
22787;DHT22;63134;52.020;4.714;2024-03-23T08:29:13;10.00;88.40
22787;DHT22;63134;52.020;4.714;2024-03-23T08:31:58;10.20;86.00
22787;DHT22;63134;52.020;4.714;2024-03-23T08:34:43;10.30;84.70
22787;DHT22;63134;52.020;4.714;2024-03-23T08:37:27;10.30;83.60
22787;DHT22;63134;52.020;4.714;2024-03-23T08:40:12;10.20;82.30
22787;DHT22;63134;52.020;4.714;2024-03-23T08:42:56;10.00;82.70
22787;DHT22;63134;52.020;4.714;2024-03-23T08:45:41;10.10;84.40
22787;DHT22;63134;52.020;4.714;2024-03-23T08:48:25;10.30;83.70
22787;DHT22;63134;52.020;4.714;2024-03-23T08:51:11;10.60;83.50
22787;DHT22;63134;52.020;4.714;2024-03-23T08:53:56;10.80;81.10
22787;DHT22;63134;52.020;4.714;2024-03-23T08:56:40;10.80;80.30
22787;DHT22;63134;52.020;4.714;2024-03-23T08:59:25;10.80;79.40
22787;DHT22;63134;52.020;4.714;2024-03-23T09:02:10;10.80;79.20
22787;DHT22;63134;52.020;4.714;2024-03-23T09:04:56;10.90;79.30
22787;DHT22;63134;52.020;4.714;2024-03-23T09:07:41;11.10;79.20
22787;DHT22;63134;52.020;4.714;2024-03-23T09:10:26;11.10;78.10
22787;DHT22;63134;52.020;4.714;2024-03-23T09:13:10;11.10;77.10
22787;DHT22;63134;52.020;4.714;2024-03-23T09:15:55;11.20;77.20
22787;DHT22;63134;52.020;4.714;2024-03-23T09:18:40;11.30;77.20
22787;DHT22;63134;52.020;4.714;2024-03-23T09:21:25;11.50;77.00
22787;DHT22;63134;52.020;4.714;2024-03-23T09:24:10;11.60;75.60
22787;DHT22;63134;52.020;4.714;2024-03-23T09:26:54;11.70;75.00
22787;DHT22;63134;52.020;4.714;2024-03-23T09:29:39;11.70;74.00
22787;DHT22;63134;52.020;4.714;2024-03-23T09:32:23;11.70;73.90
22787;DHT22;63134;52.020;4.714;2024-03-23T09:35:08;11.70;73.30
22787;DHT22;63134;52.020;4.714;2024-03-23T09:37:53;11.60;73.60
22787;DHT22;63134;52.020;4.714;2024-03-23T09:40:41;11.70;73.00
22787;DHT22;63134;52.020;4.714;2024-03-23T09:43:29;11.80;72.90
22787;DHT22;63134;52.020;4.714;2024-03-23T09:46:14;11.60;72.20
22787;DHT22;63134;52.020;4.714;2024-03-23T09:48:59;11.60;71.70
22787;DHT22;63134;52.020;4.714;2024-03-23T09:51:44;11.30;71.30
22787;DHT22;63134;52.020;4.714;2024-03-23T09:54:28;11.20;72.50
22787;DHT22;63134;52.020;4.714;2024-03-23T09:57:13;11.40;74.60
22787;DHT22;63134;52.020;4.714;2024-03-23T09:59:57;11.80;73.40
22787;DHT22;63134;52.020;4.714;2024-03-23T10:02:42;11.80;70.50
22787;DHT22;63134;52.020;4.714;2024-03-23T10:05:28;11.60;70.70
22787;DHT22;63134;52.020;4.714;2024-03-23T10:11:02;11.30;73.60
22787;DHT22;63134;52.020;4.714;2024-03-23T10:13:56;11.50;73.90
22787;DHT22;63134;52.020;4.714;2024-03-23T10:16:41;11.80;74.40
22787;DHT22;63134;52.020;4.714;2024-03-23T10:19:32;12.10;71.70
22787;DHT22;63134;52.020;4.714;2024-03-23T10:22:21;12.30;69.70
22787;DHT22;63134;52.020;4.714;2024-03-23T10:25:10;12.20;68.80
22787;DHT22;63134;52.020;4.714;2024-03-23T10:27:59;11.90;68.70
22787;DHT22;63134;52.020;4.714;2024-03-23T10:30:47;11.80;70.30
22787;DHT22;63134;52.020;4.714;2024-03-23T10:33:31;11.80;70.90
22787;DHT22;63134;52.020;4.714;2024-03-23T10:36:17;12.00;72.10
22787;DHT22;63134;52.020;4.714;2024-03-23T10:39:05;12.30;71.60
22787;DHT22;63134;52.020;4.714;2024-03-23T10:41:53;12.30;69.20
22787;DHT22;63134;52.020;4.714;2024-03-23T10:44:40;12.10;67.60
22787;DHT22;63134;52.020;4.714;2024-03-23T10:47:26;11.80;67.60
22787;DHT22;63134;52.020;4.714;2024-03-23T10:50:10;11.70;68.00
22787;DHT22;63134;52.020;4.714;2024-03-23T10:52:56;11.80;67.20
22787;DHT22;63134;52.020;4.714;2024-03-23T10:55:43;12.10;67.00
22787;DHT22;63134;52.020;4.714;2024-03-23T11:01:20;12.60;63.60
22787;DHT22;63134;52.020;4.714;2024-03-23T11:04:05;12.80;62.90
22787;DHT22;63134;52.020;4.714;2024-03-23T11:06:50;12.70;61.20
22787;DHT22;63134;52.020;4.714;2024-03-23T11:12:31;12.80;61.00
22787;DHT22;63134;52.020;4.714;2024-03-23T11:15:17;13.00;60.10
22787;DHT22;63134;52.020;4.714;2024-03-23T11:18:06;13.10;59.90
22787;DHT22;63134;52.020;4.714;2024-03-23T11:20:55;13.20;59.30
22787;DHT22;63134;52.020;4.714;2024-03-23T11:23:40;13.20;59.60
22787;DHT22;63134;52.020;4.714;2024-03-23T11:26:24;12.90;60.30
22787;DHT22;63134;52.020;4.714;2024-03-23T11:29:13;13.00;60.80
22787;DHT22;63134;52.020;4.714;2024-03-23T11:31:58;13.40;61.30
22787;DHT22;63134;52.020;4.714;2024-03-23T11:34:45;13.90;58.90
22787;DHT22;63134;52.020;4.714;2024-03-23T11:37:30;13.50;58.30
22787;DHT22;63134;52.020;4.714;2024-03-23T11:40:21;13.30;58.40
22787;DHT22;63134;52.020;4.714;2024-03-23T11:43:07;13.30;58.70
22787;DHT22;63134;52.020;4.714;2024-03-23T11:45:55;13.10;58.20
22787;DHT22;63134;52.020;4.714;2024-03-23T11:48:40;12.90;58.70
22787;DHT22;63134;52.020;4.714;2024-03-23T11:51:29;13.00;59.30
22787;DHT22;63134;52.020;4.714;2024-03-23T11:54:16;13.00;58.80
22787;DHT22;63134;52.020;4.714;2024-03-23T11:57:02;12.80;58.70
22787;DHT22;63134;52.020;4.714;2024-03-23T11:59:52;12.60;59.80
22787;DHT22;63134;52.020;4.714;2024-03-23T12:02:36;12.50;60.30
22787;DHT22;63134;52.020;4.714;2024-03-23T12:05:22;12.90;60.30
22787;DHT22;63134;52.020;4.714;2024-03-23T12:08:30;13.50;60.40
22787;DHT22;63134;52.020;4.714;2024-03-23T12:11:16;13.60;58.80
22787;DHT22;63134;52.020;4.714;2024-03-23T12:14:01;13.30;57.60
22787;DHT22;63134;52.020;4.714;2024-03-23T12:16:46;12.70;59.70
22787;DHT22;63134;52.020;4.714;2024-03-23T12:19:31;12.20;60.70
22787;DHT22;63134;52.020;4.714;2024-03-23T12:22:20;12.20;61.30
22787;DHT22;63134;52.020;4.714;2024-03-23T12:25:05;12.20;61.50
22787;DHT22;63134;52.020;4.714;2024-03-23T12:27:52;12.60;61.60
22787;DHT22;63134;52.020;4.714;2024-03-23T12:30:39;12.90;59.40
22787;DHT22;63134;52.020;4.714;2024-03-23T12:33:24;12.80;59.00
22787;DHT22;63134;52.020;4.714;2024-03-23T12:36:09;14.40;61.10
22787;DHT22;63134;52.020;4.714;2024-03-23T12:38:53;14.60;57.00
22787;DHT22;63134;52.020;4.714;2024-03-23T12:41:38;14.10;55.20
22787;DHT22;63134;52.020;4.714;2024-03-23T12:44:23;13.60;56.40
22787;DHT22;63134;52.020;4.714;2024-03-23T12:47:07;13.50;58.50
22787;DHT22;63134;52.020;4.714;2024-03-23T12:49:52;13.20;57.50
22787;DHT22;63134;52.020;4.714;2024-03-23T12:52:37;13.20;57.90
22787;DHT22;63134;52.020;4.714;2024-03-23T12:55:22;13.60;58.80
22787;DHT22;63134;52.020;4.714;2024-03-23T12:58:07;13.30;57.70
22787;DHT22;63134;52.020;4.714;2024-03-23T13:00:51;14.00;60.30
22787;DHT22;63134;52.020;4.714;2024-03-23T13:03:36;13.60;58.80
22787;DHT22;63134;52.020;4.714;2024-03-23T13:06:21;12.90;59.20
22787;DHT22;63134;52.020;4.714;2024-03-23T13:09:09;11.80;59.40
22787;DHT22;63134;52.020;4.714;2024-03-23T13:11:53;10.80;64.90
22787;DHT22;63134;52.020;4.714;2024-03-23T13:14:38;10.40;69.20
22787;DHT22;63134;52.020;4.714;2024-03-23T13:17:23;10.90;72.70
22787;DHT22;63134;52.020;4.714;2024-03-23T13:20:11;11.60;72.20
22787;DHT22;63134;52.020;4.714;2024-03-23T13:22:59;11.30;71.30
22787;DHT22;63134;52.020;4.714;2024-03-23T13:25:55;11.60;73.10
22787;DHT22;63134;52.020;4.714;2024-03-23T13:28:40;11.80;70.90
22787;DHT22;63134;52.020;4.714;2024-03-23T13:31:25;13.40;75.60
22787;DHT22;63134;52.020;4.714;2024-03-23T13:34:10;14.10;65.30
22787;DHT22;63134;52.020;4.714;2024-03-23T13:36:55;13.70;62.30
22787;DHT22;63134;52.020;4.714;2024-03-23T13:39:42;14.20;63.70
22787;DHT22;63134;52.020;4.714;2024-03-23T13:42:27;15.40;58.20
22787;DHT22;63134;52.020;4.714;2024-03-23T13:45:11;15.60;56.80
22787;DHT22;63134;52.020;4.714;2024-03-23T13:48:02;14.50;54.70
22787;DHT22;63134;52.020;4.714;2024-03-23T13:50:47;14.20;57.60
22787;DHT22;63134;52.020;4.714;2024-03-23T13:53:32;14.40;57.30
22787;DHT22;63134;52.020;4.714;2024-03-23T13:56:17;14.20;57.20
22787;DHT22;63134;52.020;4.714;2024-03-23T13:59:01;15.00;57.60
22787;DHT22;63134;52.020;4.714;2024-03-23T14:01:47;15.60;55.30
22787;DHT22;63134;52.020;4.714;2024-03-23T14:04:32;15.50;56.00
22787;DHT22;63134;52.020;4.714;2024-03-23T14:07:16;15.10;55.30
22787;DHT22;63134;52.020;4.714;2024-03-23T14:10:03;14.50;56.50
22787;DHT22;63134;52.020;4.714;2024-03-23T14:12:48;14.00;56.40
22787;DHT22;63134;52.020;4.714;2024-03-23T14:15:32;14.40;57.80
22787;DHT22;63134;52.020;4.714;2024-03-23T14:18:20;15.80;55.40
22787;DHT22;63134;52.020;4.714;2024-03-23T14:21:06;17.20;52.50
22787;DHT22;63134;52.020;4.714;2024-03-23T14:23:51;18.40;51.70
22787;DHT22;63134;52.020;4.714;2024-03-23T14:26:36;19.40;49.50
22787;DHT22;63134;52.020;4.714;2024-03-23T14:29:21;20.10;47.80
22787;DHT22;63134;52.020;4.714;2024-03-23T14:32:06;18.80;46.10
22787;DHT22;63134;52.020;4.714;2024-03-23T14:34:50;17.00;48.70
22787;DHT22;63134;52.020;4.714;2024-03-23T14:37:36;15.60;51.50
22787;DHT22;63134;52.020;4.714;2024-03-23T14:40:22;14.60;55.80
22787;DHT22;63134;52.020;4.714;2024-03-23T14:43:06;15.40;59.10
22787;DHT22;63134;52.020;4.714;2024-03-23T14:46:15;16.50;58.60
22787;DHT22;63134;52.020;4.714;2024-03-23T14:49:00;18.20;57.00
22787;DHT22;63134;52.020;4.714;2024-03-23T14:51:47;19.90;53.60
22787;DHT22;63134;52.020;4.714;2024-03-23T14:54:35;21.00;49.00
22787;DHT22;63134;52.020;4.714;2024-03-23T14:57:23;21.50;46.50
22787;DHT22;63134;52.020;4.714;2024-03-23T15:00:08;21.80;45.20
22787;DHT22;63134;52.020;4.714;2024-03-23T15:02:55;20.60;44.40
22787;DHT22;63134;52.020;4.714;2024-03-23T15:05:39;19.20;46.70
22787;DHT22;63134;52.020;4.714;2024-03-23T15:08:24;17.80;49.00
22787;DHT22;63134;52.020;4.714;2024-03-23T15:11:09;16.80;51.40
22787;DHT22;63134;52.020;4.714;2024-03-23T15:13:53;18.10;54.70
22787;DHT22;63134;52.020;4.714;2024-03-23T15:16:39;20.30;52.20
22787;DHT22;63134;52.020;4.714;2024-03-23T15:19:24;21.50;48.00
22787;DHT22;63134;52.020;4.714;2024-03-23T15:22:08;20.10;43.60
22787;DHT22;63134;52.020;4.714;2024-03-23T15:24:54;18.70;45.60
22787;DHT22;63134;52.020;4.714;2024-03-23T15:27:39;17.90;46.20
22787;DHT22;63134;52.020;4.714;2024-03-23T15:30:23;17.20;46.90
22787;DHT22;63134;52.020;4.714;2024-03-23T15:33:08;16.40;48.60
22787;DHT22;63134;52.020;4.714;2024-03-23T15:35:53;16.10;50.30
22787;DHT22;63134;52.020;4.714;2024-03-23T15:38:37;15.70;50.70
22787;DHT22;63134;52.020;4.714;2024-03-23T15:41:23;15.50;52.40
22787;DHT22;63134;52.020;4.714;2024-03-23T15:44:08;15.90;54.20
22787;DHT22;63134;52.020;4.714;2024-03-23T15:46:53;16.40;51.60
22787;DHT22;63134;52.020;4.714;2024-03-23T15:49:38;15.80;51.60
22787;DHT22;63134;52.020;4.714;2024-03-23T15:52:22;15.70;52.40
22787;DHT22;63134;52.020;4.714;2024-03-23T15:55:08;17.50;51.40
22787;DHT22;63134;52.020;4.714;2024-03-23T15:57:57;19.60;48.60
22787;DHT22;63134;52.020;4.714;2024-03-23T16:00:42;21.30;46.10
22787;DHT22;63134;52.020;4.714;2024-03-23T16:03:27;22.70;43.90
22787;DHT22;63134;52.020;4.714;2024-03-23T16:06:15;23.30;41.60
22787;DHT22;63134;52.020;4.714;2024-03-23T16:09:02;23.70;41.80
22787;DHT22;63134;52.020;4.714;2024-03-23T16:11:47;24.10;39.80
22787;DHT22;63134;52.020;4.714;2024-03-23T16:14:32;23.70;39.80
22787;DHT22;63134;52.020;4.714;2024-03-23T16:17:16;21.60;40.20
22787;DHT22;63134;52.020;4.714;2024-03-23T16:20:03;19.80;42.50
22787;DHT22;63134;52.020;4.714;2024-03-23T16:22:48;18.60;45.40
22787;DHT22;63134;52.020;4.714;2024-03-23T16:25:32;18.30;47.00
22787;DHT22;63134;52.020;4.714;2024-03-23T16:28:20;17.30;47.60
22787;DHT22;63134;52.020;4.714;2024-03-23T16:31:06;16.30;49.00
22787;DHT22;63134;52.020;4.714;2024-03-23T16:33:50;15.10;50.80
22787;DHT22;63134;52.020;4.714;2024-03-23T16:36:36;14.40;52.70
22787;DHT22;63134;52.020;4.714;2024-03-23T16:39:21;13.80;54.20
22787;DHT22;63134;52.020;4.714;2024-03-23T16:42:06;13.40;55.60
22787;DHT22;63134;52.020;4.714;2024-03-23T16:44:50;13.20;56.40
22787;DHT22;63134;52.020;4.714;2024-03-23T16:47:38;12.90;57.00
22787;DHT22;63134;52.020;4.714;2024-03-23T16:50:25;12.50;57.20
22787;DHT22;63134;52.020;4.714;2024-03-23T16:53:09;11.70;59.50
22787;DHT22;63134;52.020;4.714;2024-03-23T16:55:58;11.20;63.10
22787;DHT22;63134;52.020;4.714;2024-03-23T16:58:43;10.80;65.30
22787;DHT22;63134;52.020;4.714;2024-03-23T17:01:30;10.60;66.90
22787;DHT22;63134;52.020;4.714;2024-03-23T17:04:15;10.50;67.30
22787;DHT22;63134;52.020;4.714;2024-03-23T17:06:59;10.30;68.00
22787;DHT22;63134;52.020;4.714;2024-03-23T17:09:47;10.30;68.80
22787;DHT22;63134;52.020;4.714;2024-03-23T17:12:32;10.30;69.10
22787;DHT22;63134;52.020;4.714;2024-03-23T17:15:17;10.30;69.20
22787;DHT22;63134;52.020;4.714;2024-03-23T17:18:05;10.60;67.80
22787;DHT22;63134;52.020;4.714;2024-03-23T17:20:51;10.60;66.70
22787;DHT22;63134;52.020;4.714;2024-03-23T17:23:35;11.30;67.60
22787;DHT22;63134;52.020;4.714;2024-03-23T17:26:20;11.50;64.40
22787;DHT22;63134;52.020;4.714;2024-03-23T17:29:05;11.30;64.20
22787;DHT22;63134;52.020;4.714;2024-03-23T17:31:49;11.40;65.00
22787;DHT22;63134;52.020;4.714;2024-03-23T17:34:34;11.50;65.10
22787;DHT22;63134;52.020;4.714;2024-03-23T17:37:18;11.10;65.00
22787;DHT22;63134;52.020;4.714;2024-03-23T17:40:03;10.70;66.40
22787;DHT22;63134;52.020;4.714;2024-03-23T17:42:51;10.70;68.20
22787;DHT22;63134;52.020;4.714;2024-03-23T17:45:35;10.90;68.60
22787;DHT22;63134;52.020;4.714;2024-03-23T17:48:27;10.90;68.60
22787;DHT22;63134;52.020;4.714;2024-03-23T17:51:11;10.50;69.20
22787;DHT22;63134;52.020;4.714;2024-03-23T17:53:57;10.20;70.50
22787;DHT22;63134;52.020;4.714;2024-03-23T17:56:42;10.00;72.00
22787;DHT22;63134;52.020;4.714;2024-03-23T17:59:26;9.90;73.00
22787;DHT22;63134;52.020;4.714;2024-03-23T18:02:11;9.80;73.70
22787;DHT22;63134;52.020;4.714;2024-03-23T18:04:55;9.70;74.10
22787;DHT22;63134;52.020;4.714;2024-03-23T18:07:40;9.60;74.50
22787;DHT22;63134;52.020;4.714;2024-03-23T18:10:25;9.40;74.60
22787;DHT22;63134;52.020;4.714;2024-03-23T18:13:09;9.30;75.00
22787;DHT22;63134;52.020;4.714;2024-03-23T18:16:00;9.20;75.20
22787;DHT22;63134;52.020;4.714;2024-03-23T18:18:45;9.10;75.70
22787;DHT22;63134;52.020;4.714;2024-03-23T18:21:31;9.00;76.20
22787;DHT22;63134;52.020;4.714;2024-03-23T18:24:16;8.90;76.50
22787;DHT22;63134;52.020;4.714;2024-03-23T18:27:01;8.80;76.80
22787;DHT22;63134;52.020;4.714;2024-03-23T18:29:46;8.70;77.20
22787;DHT22;63134;52.020;4.714;2024-03-23T18:32:31;8.50;77.60
22787;DHT22;63134;52.020;4.714;2024-03-23T18:35:19;8.40;78.00